createdAt,value
2023-03-30T00:00:00.946Z,100975.41
2023-03-30T00:03:22.899Z,100972.75
2023-03-30T00:06:46.145Z,100965.13
2023-03-30T00:10:08.668Z,100969.00
2023-03-30T00:13:30.725Z,100964.75
2023-03-30T00:16:53.449Z,100965.72
2023-03-30T00:20:17.190Z,100955.31
2023-03-30T00:23:41.050Z,100953.75
2023-03-30T00:27:02.977Z,100947.09
2023-03-30T00:30:24.609Z,100942.25
2023-03-30T00:33:47.404Z,100937.28
2023-03-30T00:37:09.558Z,100934.75
2023-03-30T00:40:34.723Z,100926.03
2023-03-30T00:44:00.741Z,100925.19
2023-03-30T00:47:22.877Z,100922.53
2023-03-30T00:50:48.539Z,100909.59
2023-03-30T00:54:13.872Z,100908.63
2023-03-30T00:57:38.434Z,100914.06
2023-03-30T01:01:03.114Z,100903.44
2023-03-30T01:04:25.885Z,100904.41
2023-03-30T01:07:49.910Z,100901.88
2023-03-30T01:11:12.404Z,100891.22
2023-03-30T01:14:37.218Z,100887.03
2023-03-30T01:18:13.097Z,100875.78
2023-03-30T01:22:05.318Z,100860.78
2023-03-30T01:26:08.435Z,100860.06
2023-03-30T01:29:45.156Z,100846.91
2023-03-30T01:33:48.460Z,100843.41
2023-03-30T01:37:40.174Z,100834.81
2023-03-30T01:41:10.947Z,100823.59
2023-03-30T01:44:41.627Z,100819.34
2023-03-30T01:48:09.811Z,100808.97
2023-03-30T01:51:36.714Z,100808.00
2023-03-30T01:55:02.164Z,100807.19
2023-03-30T01:58:30.585Z,100801.88
2023-03-30T02:02:00.417Z,100806.31
2023-03-30T02:05:24.507Z,100802.84
2023-03-30T02:08:50.740Z,100792.31
2023-03-30T02:12:14.273Z,100794.88
2023-03-30T02:15:42.693Z,100793.19
2023-03-30T02:19:06.335Z,100788.84
2023-03-30T02:22:30.188Z,100791.59
2023-03-30T02:25:55.315Z,100799.06
2023-03-30T02:29:17.811Z,100804.84
2023-03-30T02:32:44.402Z,100794.81
2023-03-30T02:36:27.767Z,100788.63
2023-03-30T02:39:59.323Z,100792.25
2023-03-30T02:43:42.970Z,100775.56
2023-03-30T02:47:10.705Z,100776.41
2023-03-30T02:50:39.596Z,100761.31
2023-03-30T02:54:23.137Z,100755.19
2023-03-30T02:58:15.749Z,100743.72
2023-03-30T03:02:05.653Z,100743.63
2023-03-30T03:05:28.767Z,100729.41
2023-03-30T03:09:06.146Z,100711.78
2023-03-30T03:12:29.813Z,100705.72
2023-03-30T03:15:55.466Z,100704.03
2023-03-30T03:19:17.081Z,100687.25
2023-03-30T03:22:42.200Z,100679.19
2023-03-30T03:26:05.956Z,100673.00
2023-03-30T03:29:28.121Z,100691.72
2023-03-30T03:32:50.646Z,100676.03
2023-03-30T03:36:12.991Z,100670.59
2023-03-30T03:39:41.778Z,100680.25
2023-03-30T03:43:07.561Z,100674.94
2023-03-30T03:46:29.393Z,100674.34
2023-03-30T03:49:51.569Z,100667.34
2023-03-30T03:53:14.084Z,100667.22
2023-03-30T03:56:35.945Z,100674.34
2023-03-30T03:59:59.920Z,100666.25
2023-03-30T04:03:22.185Z,100667.94
2023-03-30T04:06:43.997Z,100669.78
2023-03-30T04:10:07.272Z,100670.84
2023-03-30T04:13:37.812Z,100656.13
2023-03-30T04:17:24.482Z,100642.13
2023-03-30T04:21:02.777Z,100645.84
2023-03-30T04:24:44.714Z,100647.91
2023-03-30T04:28:25.413Z,100629.34
2023-03-30T04:32:20.600Z,100625.59
2023-03-30T04:36:03.634Z,100630.91
2023-03-30T04:39:30.107Z,100616.66
2023-03-30T04:43:14.114Z,100614.97
2023-03-30T04:46:47.995Z,100601.34
2023-03-30T04:50:36.566Z,100606.19
2023-03-30T04:54:18.236Z,100592.41
2023-03-30T04:58:00.871Z,100596.56
2023-03-30T05:01:25.451Z,100597.16
2023-03-30T05:05:03.367Z,100589.69
2023-03-30T05:08:43.587Z,100589.44
2023-03-30T05:12:35.894Z,100587.50
2023-03-30T05:16:16.387Z,100583.88
2023-03-30T05:19:52.476Z,100580.00
2023-03-30T05:23:21.558Z,100575.06
2023-03-30T05:27:02.362Z,100565.75
2023-03-30T05:30:35.210Z,100556.56
2023-03-30T05:34:25.941Z,100559.09
2023-03-30T05:38:07.449Z,100553.66
2023-03-30T05:41:56.958Z,100554.38
2023-03-30T05:45:58.345Z,100550.66
2023-03-30T05:49:47.535Z,100542.53
2023-03-30T05:53:16.726Z,100543.25
2023-03-30T05:56:57.561Z,100530.81
2023-03-30T06:00:27.063Z,100523.56
2023-03-30T06:03:59.523Z,100520.66
2023-03-30T06:07:21.807Z,100513.25
2023-03-30T06:10:52.723Z,100509.66
2023-03-30T06:14:14.698Z,100520.16
2023-03-30T06:17:42.769Z,100507.72
2023-03-30T06:21:08.064Z,100501.44
2023-03-30T06:25:02.288Z,100479.94
2023-03-30T06:28:25.190Z,100482.31
2023-03-30T06:31:48.020Z,100480.22
2023-03-30T06:35:29.215Z,100485.19
2023-03-30T06:38:53.859Z,100479.59
2023-03-30T06:42:15.689Z,100465.34
2023-03-30T06:45:57.681Z,100458.94
2023-03-30T06:49:20.777Z,100453.09
2023-03-30T06:53:05.887Z,100453.66
2023-03-30T06:56:37.366Z,100454.13
2023-03-30T07:00:06.457Z,100457.22
2023-03-30T07:03:34.640Z,100469.41
2023-03-30T07:07:10.384Z,100472.38
2023-03-30T07:10:32.934Z,100463.06
2023-03-30T07:13:58.638Z,100459.16
2023-03-30T07:17:21.148Z,100459.72
2023-03-30T07:20:44.887Z,100450.50
2023-03-30T07:24:11.191Z,100465.34
2023-03-30T07:27:33.069Z,100459.91
2023-03-30T07:30:56.497Z,100456.84
2023-03-30T07:34:18.811Z,100447.75
2023-03-30T07:37:50.718Z,100444.81
2023-03-30T07:41:16.204Z,100434.63
2023-03-30T07:44:41.090Z,100422.72
2023-03-30T07:48:07.778Z,100421.34
2023-03-30T07:51:30.576Z,100417.16
2023-03-30T07:55:12.230Z,100407.78
2023-03-30T07:58:46.802Z,100412.41
2023-03-30T08:02:13.446Z,100395.06
2023-03-30T08:05:53.929Z,100387.41
2023-03-30T08:09:17.623Z,100388.53
2023-03-30T08:12:39.341Z,100383.75
2023-03-30T08:16:01.488Z,100381.25
2023-03-30T08:19:24.864Z,100381.38
2023-03-30T08:22:48.904Z,100371.13
2023-03-30T08:26:10.363Z,100365.94
2023-03-30T08:29:33.669Z,100364.38
2023-03-30T08:32:55.566Z,100369.13
2023-03-30T08:36:17.636Z,100368.28
2023-03-30T08:39:40.425Z,100355.06
2023-03-30T08:43:26.664Z,100351.25
2023-03-30T08:46:49.361Z,100358.09
2023-03-30T08:50:15.950Z,100355.22
2023-03-30T08:53:38.872Z,100353.53
2023-03-30T08:57:11.565Z,100345.31
2023-03-30T09:00:41.346Z,100343.97
2023-03-30T09:04:14.323Z,100336.75
2023-03-30T09:07:42.245Z,100328.53
2023-03-30T09:11:11.395Z,100333.53
2023-03-30T09:14:38.483Z,100326.44
2023-03-30T09:18:07.239Z,100321.84
2023-03-30T09:21:31.675Z,100297.41
2023-03-30T09:24:53.857Z,100296.84
2023-03-30T09:28:20.757Z,100292.94
2023-03-30T09:31:48.654Z,100308.41
2023-03-30T09:35:16.021Z,100312.97
2023-03-30T09:38:41.786Z,100305.66
2023-03-30T09:42:14.485Z,100297.34
2023-03-30T09:45:37.179Z,100284.56
2023-03-30T09:49:15.231Z,100298.19
2023-03-30T09:52:40.498Z,100281.81
2023-03-30T09:56:10.224Z,100286.69
2023-03-30T09:59:33.615Z,100284.03
2023-03-30T10:02:58.128Z,100303.00
2023-03-30T10:06:21.681Z,100283.94
2023-03-30T10:09:45.911Z,100279.94
2023-03-30T10:13:12.660Z,100287.97
2023-03-30T10:16:34.595Z,100278.44
2023-03-30T10:20:24.309Z,100277.78
2023-03-30T10:24:00.798Z,100289.66
2023-03-30T10:27:29.144Z,100287.63
2023-03-30T10:30:53.842Z,100284.50
2023-03-30T10:34:18.713Z,100286.31
2023-03-30T10:37:44.084Z,100284.97
2023-03-30T10:41:12.766Z,100289.97
2023-03-30T10:44:37.013Z,100290.63
2023-03-30T10:48:13.191Z,100283.53
2023-03-30T10:51:47.921Z,100280.88
2023-03-30T10:55:18.972Z,100279.97
2023-03-30T10:59:03.917Z,100270.25
2023-03-30T11:02:36.800Z,100273.59
2023-03-30T11:06:03.454Z,100263.16
2023-03-30T11:09:31.293Z,100260.28
2023-03-30T11:12:59.477Z,100254.09
2023-03-30T11:16:27.949Z,100265.59
2023-03-30T11:19:53.057Z,100252.53
2023-03-30T11:23:20.777Z,100243.63
2023-03-30T11:26:49.418Z,100253.84
2023-03-30T11:30:17.532Z,100235.34
2023-03-30T11:33:46.909Z,100222.59
2023-03-30T11:37:16.290Z,100224.97
2023-03-30T11:40:43.925Z,100220.44
2023-03-30T11:44:06.965Z,100227.47
2023-03-30T11:47:59.736Z,100230.25
2023-03-30T11:51:40.161Z,100220.81
2023-03-30T11:55:19.158Z,100213.72
2023-03-30T11:58:47.127Z,100219.56
2023-03-30T12:02:21.789Z,100222.25
2023-03-30T12:05:47.146Z,100209.59
2023-03-30T12:09:27.319Z,100190.88
2023-03-30T12:12:52.056Z,100198.88
2023-03-30T12:16:18.231Z,100185.53
2023-03-30T12:19:55.622Z,100180.63
2023-03-30T12:23:39.269Z,100170.97
2023-03-30T12:27:06.200Z,100167.72
2023-03-30T12:30:32.034Z,100161.31
2023-03-30T12:34:06.690Z,100151.31
2023-03-30T12:37:33.497Z,100151.06
2023-03-30T12:41:14.542Z,100138.06
2023-03-30T12:44:45.361Z,100126.47
2023-03-30T12:48:32.031Z,100114.94
2023-03-30T12:52:09.766Z,100117.09
2023-03-30T12:55:43.764Z,100107.53
2023-03-30T12:59:32.871Z,100104.94
2023-03-30T13:03:19.965Z,100089.59
2023-03-30T13:06:51.547Z,100096.97
2023-03-30T13:10:36.907Z,100076.59
2023-03-30T13:13:59.857Z,100076.47
2023-03-30T13:17:21.454Z,100069.19
2023-03-30T13:21:16.479Z,100064.16
2023-03-30T13:24:44.496Z,100062.75
2023-03-30T13:28:41.700Z,100051.00
2023-03-30T13:32:10.994Z,100047.34
2023-03-30T13:35:40.745Z,100055.91
2023-03-30T13:39:08.426Z,100036.19
2023-03-30T13:42:51.099Z,100049.81
2023-03-30T13:46:22.090Z,100041.09
2023-03-30T13:49:53.472Z,100040.38
2023-03-30T13:53:17.460Z,100046.16
2023-03-30T13:56:42.525Z,100081.94
2023-03-30T14:00:09.359Z,100174.16
2023-03-30T14:03:34.468Z,100177.31
2023-03-30T14:06:58.247Z,100174.97
2023-03-30T14:10:22.111Z,100189.22
2023-03-30T14:13:46.131Z,100204.09
2023-03-30T14:17:19.905Z,100210.22
2023-03-30T14:20:49.270Z,100196.59
2023-03-30T14:24:20.029Z,100192.19
2023-03-30T14:27:41.418Z,100200.13
2023-03-30T14:31:05.935Z,100206.97
2023-03-30T14:34:30.734Z,100198.59
2023-03-30T14:37:53.653Z,100182.22
2023-03-30T14:41:19.391Z,100201.88
2023-03-30T14:44:41.966Z,100188.47
2023-03-30T14:48:03.599Z,100184.50
2023-03-30T14:51:35.097Z,100193.19
2023-03-30T14:55:07.883Z,100203.25
2023-03-30T14:58:33.665Z,100177.78
2023-03-30T15:01:57.070Z,100169.31
2023-03-30T15:05:19.944Z,100173.53
2023-03-30T15:08:46.855Z,100152.88
2023-03-30T15:12:09.558Z,100136.53
2023-03-30T15:15:33.004Z,100128.03
2023-03-30T15:19:05.388Z,100127.59
2023-03-30T15:22:30.324Z,100141.47
2023-03-30T15:25:59.437Z,100147.50
2023-03-30T15:29:22.681Z,100157.00
2023-03-30T15:32:45.022Z,100162.34
2023-03-30T15:36:09.087Z,100169.34
2023-03-30T15:39:34.778Z,100182.56
2023-03-30T15:43:16.578Z,100181.03
2023-03-30T15:46:39.044Z,100185.19
2023-03-30T15:50:01.654Z,100190.44
2023-03-30T15:53:35.199Z,100197.75
2023-03-30T15:57:03.960Z,100190.81
2023-03-30T16:00:29.949Z,100200.66
2023-03-30T16:03:56.158Z,100200.94
2023-03-30T16:07:20.021Z,100209.34
2023-03-30T16:10:41.359Z,100208.81
2023-03-30T16:14:02.759Z,100214.59
2023-03-30T16:17:25.880Z,100221.75
2023-03-30T16:20:47.379Z,100227.09
2023-03-30T16:24:09.275Z,100225.81
2023-03-30T16:27:31.216Z,100221.84
2023-03-30T16:30:56.547Z,100224.22
2023-03-30T16:34:20.361Z,100240.22
2023-03-30T16:37:42.074Z,100234.19
2023-03-30T16:41:04.646Z,100241.34
2023-03-30T16:44:26.791Z,100242.66
2023-03-30T16:47:48.617Z,100245.63
2023-03-30T16:51:13.004Z,100251.09
2023-03-30T16:54:34.840Z,100256.84
2023-03-30T16:57:56.779Z,100246.16
2023-03-30T17:01:18.863Z,100245.00
2023-03-30T17:04:40.715Z,100249.84
2023-03-30T17:08:06.028Z,100261.88
2023-03-30T17:11:28.010Z,100259.72
2023-03-30T17:14:49.489Z,100268.59
2023-03-30T17:18:15.707Z,100276.19
2023-03-30T17:21:37.575Z,100275.03
2023-03-30T17:25:00.834Z,100270.56
2023-03-30T17:28:25.158Z,100275.91
2023-03-30T17:31:46.990Z,100275.91
2023-03-30T17:35:10.455Z,100281.22
2023-03-30T17:38:32.899Z,100284.22
2023-03-30T17:41:59.977Z,100294.88
2023-03-30T17:45:23.841Z,100290.66
2023-03-30T17:48:46.212Z,100289.97
2023-03-30T17:52:08.002Z,100295.88
2023-03-30T17:55:31.742Z,100301.91
2023-03-30T17:58:55.105Z,100336.03
2023-03-30T18:02:17.284Z,100330.00
2023-03-30T18:05:39.356Z,100330.00
2023-03-30T18:09:00.692Z,100327.63
2023-03-30T18:12:21.925Z,100319.47
2023-03-30T18:15:48.436Z,100324.78
2023-03-30T18:19:11.637Z,100319.75
2023-03-30T18:22:33.590Z,100332.28
2023-03-30T18:25:55.306Z,100325.94
2023-03-30T18:29:20.366Z,100323.13
2023-03-30T18:32:47.268Z,100323.13
2023-03-30T18:36:12.625Z,100327.63
2023-03-30T18:39:34.910Z,100331.13
2023-03-30T18:42:57.070Z,100323.13
2023-03-30T18:46:18.846Z,100318.63
2023-03-30T18:49:41.986Z,100318.47
2023-03-30T18:53:05.020Z,100314.97
2023-03-30T18:56:27.300Z,100316.78
2023-03-30T18:59:48.837Z,100338.31
2023-03-30T19:03:13.235Z,100335.25
2023-03-30T19:06:36.522Z,100336.66
2023-03-30T19:09:57.721Z,100344.97
2023-03-30T19:13:21.911Z,100347.06
2023-03-30T19:16:43.670Z,100338.69
2023-03-30T19:20:07.517Z,100349.50
2023-03-30T19:23:30.793Z,100356.66
2023-03-30T19:26:52.283Z,100351.03
2023-03-30T19:30:16.925Z,100353.56
2023-03-30T19:33:39.131Z,100358.03
2023-03-30T19:37:01.997Z,100371.66
2023-03-30T19:40:25.441Z,100375.78
2023-03-30T19:43:50.097Z,100380.97
2023-03-30T19:47:11.825Z,100369.06
2023-03-30T19:50:33.353Z,100375.94
2023-03-30T19:53:56.970Z,100374.13
2023-03-30T19:57:20.530Z,100377.78
2023-03-30T20:00:43.578Z,100367.09
2023-03-30T20:04:05.014Z,100379.19
2023-03-30T20:07:27.054Z,100372.16
2023-03-30T20:10:50.007Z,100368.69
2023-03-30T20:14:13.110Z,100370.22
2023-03-30T20:17:36.377Z,100368.97
2023-03-30T20:20:58.453Z,100363.78
2023-03-30T20:24:20.400Z,100369.00
2023-03-30T20:27:42.671Z,100376.16
2023-03-30T20:31:07.898Z,100381.22
2023-03-30T20:34:31.514Z,100377.41
2023-03-30T20:37:53.174Z,100391.31
2023-03-30T20:41:16.130Z,100388.63
2023-03-30T20:44:41.783Z,100392.44
2023-03-30T20:48:06.344Z,100393.84
2023-03-30T20:51:27.839Z,100396.63
2023-03-30T20:54:49.539Z,100397.06
2023-03-30T20:58:11.468Z,100406.31
2023-03-30T21:01:34.117Z,100400.44
2023-03-30T21:04:58.026Z,100400.72
2023-03-30T21:08:20.030Z,100406.19
2023-03-30T21:11:41.954Z,100411.66
2023-03-30T21:15:03.927Z,100404.75
2023-03-30T21:18:26.283Z,100399.72
2023-03-30T21:21:49.593Z,100403.50
2023-03-30T21:25:12.746Z,100397.63
2023-03-30T21:28:35.489Z,100394.41
2023-03-30T21:31:57.726Z,100396.50
2023-03-30T21:35:19.711Z,100391.41
2023-03-30T21:38:42.564Z,100391.53
2023-03-30T21:42:05.187Z,100389.16
2023-03-30T21:45:27.040Z,100391.13
2023-03-30T21:48:53.055Z,100390.41
2023-03-30T21:52:15.680Z,100386.22
2023-03-30T21:55:38.902Z,100388.19
2023-03-30T21:59:00.834Z,100388.19
2023-03-30T22:02:22.831Z,100380.31
2023-03-30T22:05:45.288Z,100369.69
2023-03-30T22:09:07.013Z,100369.41
2023-03-30T22:12:31.431Z,100373.91
2023-03-30T22:15:57.536Z,100365.22
2023-03-30T22:19:22.735Z,100358.75
2023-03-30T22:22:44.187Z,100347.41
2023-03-30T22:26:08.345Z,100349.78
2023-03-30T22:29:31.581Z,100358.47
2023-03-30T22:32:53.657Z,100348.41
2023-03-30T22:36:17.397Z,100345.59
2023-03-30T22:39:39.264Z,100343.38
2023-03-30T22:43:00.956Z,100334.41
2023-03-30T22:46:25.303Z,100334.13
2023-03-30T22:49:47.250Z,100338.59
2023-03-30T22:53:08.889Z,100335.50
2023-03-30T22:56:30.928Z,100337.19
2023-03-30T22:59:52.424Z,100326.16
2023-03-30T23:03:15.769Z,100322.66
2023-03-30T23:06:37.535Z,100311.88
2023-03-30T23:09:59.081Z,100305.69
2023-03-30T23:13:20.683Z,100306.41
2023-03-30T23:16:42.263Z,100309.91
2023-03-30T23:20:06.782Z,100301.63
2023-03-30T23:23:28.150Z,100292.66
2023-03-30T23:26:49.790Z,100300.53
2023-03-30T23:30:12.873Z,100301.34
2023-03-30T23:33:34.562Z,100304.72
2023-03-30T23:36:59.622Z,100313.28
2023-03-30T23:40:21.480Z,100298.81
2023-03-30T23:43:43.414Z,100302.47
2023-03-30T23:47:05.420Z,100300.38
2023-03-30T23:50:28.967Z,100302.06
2023-03-30T23:53:54.406Z,100291.69
2023-03-30T23:57:16.262Z,100287.91
